Flight Track Log - Related Links

Times and Time Zones

All times are in EDT time to prevent confusion due to time zone crossing. See the RPA3228 flight status page for this flight to view local times or setup timezone preferences in your user account.

Time Position Orientation Groundspeed Altitude Reporting Facility
EDT Latitude Longitude Course Direction KTS MPH feet Rate Location/Type
Mon 10:31:12 AM 38.8667 -77.0500 331° Northwest 158 182 1,400  Level Potomac TRACON
Mon 10:32:18 AM 38.9167 -77.1000 322° Northwest 227 261 3,700 2,639 Climbing Potomac TRACON
Mon 10:33:00 AM 39.1292 -77.1459 337° Northwest  Level Estimated
Mon 10:33:58 AM 38.9858 -77.2178 307° West 262 302 8,700  Level Washington Center
Mon 10:34:00 AM 39.2149 -77.2033 333° Northwest  Level FlightAware Approximate
Mon 10:34:58 AM 39.0117 -77.3119 289° West 267 307 11,700  Level Washington Center
Mon 10:35:00 AM 39.3074 -77.2391 339° North  Level Estimated
Mon 10:35:59 AM 39.0478 -77.4092 296° West 287 330 14,400  Level Washington Center
Mon 10:36:00 AM 39.3921 -77.2993 331° Northwest  Level FlightAware Approximate
Mon 10:36:57 AM 39.1369 -77.4328 348° North 281 323 16,600  Level Washington Center
Mon 10:37:57 AM 39.2347 -77.4378 358° North 311 358 18,000 2,226 Climbing Washington Center
Mon 10:40:03 AM 39.4614 -77.4483 358° North 364 419 23,500 1,935 Climbing New York Center
Mon 10:41:03 AM 39.5633 -77.4528 358° North 369 425 24,000 250 Climbing New York Center
Mon 10:42:03 AM 39.6694 -77.4600 357° North 369 425 24,000  Level New York Center
Mon 10:43:03 AM 39.7719 -77.4536 North 369 425 24,000  Level New York Center
Mon 10:44:03 AM 39.8764 -77.4528 360° North 369 425 24,000  Level New York Center
Mon 10:45:03 AM 39.9806 -77.4544 359° North 369 425 24,000  Level New York Center
Mon 10:46:03 AM 40.0806 -77.4914 344° North 364 419 24,000  Level New York Center
Mon 10:47:03 AM 40.1806 -77.5281 344° North 370 426 24,000  Level New York Center
Mon 10:49:12 AM 40.3911 -77.6117 343° North 383 441 24,000  Level Cleveland Center
Mon 10:50:12 AM 40.4881 -77.6508 343° North 372 428 24,000  Level Cleveland Center
Mon 10:51:12 AM 40.5892 -77.6903 343° North 372 428 24,000  Level Cleveland Center
Mon 10:52:12 AM 40.6881 -77.7297 343° North 367 422 24,000  Level Cleveland Center
Mon 10:53:12 AM 40.7892 -77.7692 344° North 367 422 24,000  Level Cleveland Center
Mon 10:54:12 AM 40.8861 -77.8092 343° North 367 422 24,000  Level Cleveland Center
Mon 10:55:12 AM 40.9872 -77.8489 343° North 367 422 24,000  Level Cleveland Center
Mon 10:56:12 AM 41.0839 -77.8861 344° North 367 422 24,000  Level Cleveland Center
Mon 10:57:12 AM 41.1850 -77.9289 342° North 367 422 24,000  Level Cleveland Center
Mon 10:58:12 AM 41.2839 -77.9664 344° North 367 422 24,000  Level Cleveland Center
Mon 10:59:12 AM 41.3786 -78.0039 343° North 367 422 24,000 -250 Level Cleveland Center
Mon 11:00:12 AM 41.4669 -78.0419 342° North 367 422 23,500 -800 Descending Cleveland Center
Mon 11:01:12 AM 41.5636 -78.0800 344° North 367 422 22,400 -1,150 Descending Cleveland Center
Mon 11:02:12 AM 41.6606 -78.1178 344° North 367 422 21,200 -1,150 Descending Cleveland Center
Mon 11:03:12 AM 41.7531 -78.1589 342° North 367 422 20,100 -1,100 Descending Cleveland Center
Mon 11:04:12 AM 41.8478 -78.1969 343° North 362 417 19,000 -1,100 Descending Cleveland Center
Mon 11:05:12 AM 41.9381 -78.2356 342° North 357 411 17,900 -1,000 Descending Cleveland Center
Mon 11:06:12 AM 42.0328 -78.2739 343° North 351 404 17,000 -1,000 Descending Cleveland Center
Mon 11:07:12 AM 42.1211 -78.3100 343° North 345 397 15,900 -1,050 Descending Cleveland Center
Mon 11:08:12 AM 42.2050 -78.3406 345° North 345 397 14,900 -1,050 Descending Cleveland Center
Mon 11:09:12 AM 42.2994 -78.3822 342° North 345 397 13,800 -1,050 Descending Cleveland Center
Mon 11:10:12 AM 42.3878 -78.4186 343° North 340 391 12,800 -1,050 Descending Cleveland Center
Mon 11:11:12 AM 42.4697 -78.4553 342° North 327 376 11,700 -1,050 Descending Cleveland Center
Mon 11:12:12 AM 42.5556 -78.4775 349° North 313 360 10,700 -1,300 Descending Cleveland Center
Mon 11:13:12 AM 42.6372 -78.4919 353° North 303 349 9,100 -1,750 Descending Cleveland Center
Mon 11:14:12 AM 42.7292 -78.5086 352° North 297 342 7,200 -1,550 Descending Cleveland Center
Mon 11:15:12 AM 42.7983 -78.5233 351° North 291 335 6,000 -1,300 Descending Cleveland Center
Mon 11:16:12 AM 42.8736 -78.5433 349° North 278 320 4,600 -1,050 Descending Cleveland Center
Mon 11:17:12 AM 42.9531 -78.5608 351° North 265 305 3,900 -800 Descending Cleveland Center
Mon 11:18:12 AM 42.9936 -78.6106 318° Northwest 198 228 3,000 -923 Descending Cleveland Center
Mon 11:19:09 AM 42.9833 -78.6667 256° West 151 174 2,100 -947 Descending Buffalo TRACON

Login

Don't have an account? Register now (free) for customized features, flight alerts, and more!